Time;durP1;ratioP1;P1;durP2;ratioP2;P2;SDS_P1;SDS_P2;PMS_P1;PMS_P2;Temp;Humidity;BMP_temperature;BMP_pressure;BME280_temperature;BME280_humidity;BME280_pressure;Samples;Min_cycle;Max_cycle;Signal;HPM_P1;HPM_P2
2023/10/25 00:01:05;;;;;;;;;;;;;;;11.45;100.00;98316.19;5093804;28;19979;-75
2023/10/25 00:03:49;;;;;;;;;;;;;;;11.45;100.00;98307.84;5091864;28;19919;-75
2023/10/25 00:06:33;;;;;;;;;;;;;;;11.41;100.00;98312.50;5098558;28;20359;-75
2023/10/25 00:09:17;;;;;;;;;;;;;;;11.41;100.00;98316.06;5080773;28;19974;-75
2023/10/25 00:12:01;;;;;;;;;;;;;;;11.42;100.00;98316.88;5087553;28;19961;-75
2023/10/25 00:14:45;;;;;;;;;;;;;;;11.43;100.00;98329.63;5100404;28;19976;-74
2023/10/25 00:17:29;;;;;;;;;;;;;;;11.43;100.00;98334.38;5099030;28;19954;-75
2023/10/25 00:20:14;;;;;;;;;;;;;;;11.44;100.00;98336.78;5094697;28;20024;-75
2023/10/25 00:22:58;;;;;;;;;;;;;;;11.44;100.00;98344.31;5100115;28;20009;-75
2023/10/25 00:25:43;;;;;;;;;;;;;;;11.43;100.00;98346.31;5100236;28;19962;-74
2023/10/25 00:28:26;;;;;;;;;;;;;;;11.43;100.00;98348.28;5093494;28;19954;-75
2023/10/25 00:31:11;;;;;;;;;;;;;;;11.43;100.00;98367.72;5086916;28;19934;-74
2023/10/25 00:33:55;;;;;;;;;;;;;;;11.43;100.00;98378.84;5096704;28;19961;-75
2023/10/25 00:36:39;;;;;;;;;;;;;;;11.43;100.00;98356.63;5098790;28;19976;-75
2023/10/25 00:39:22;;;;;;;;;;;;;;;11.40;100.00;98352.56;5079218;28;20418;-74
2023/10/25 00:42:06;;;;;;;;;;;;;;;11.40;100.00;98353.38;5083096;28;19934;-74
2023/10/25 00:44:50;;;;;;;;;;;;;;;11.41;100.00;98365.28;5093945;28;19919;-74
2023/10/25 00:47:35;;;;;;;;;;;;;;;11.43;100.00;98373.28;5089485;28;19919;-75
2023/10/25 00:50:18;;;;;;;;;;;;;;;11.40;100.00;98381.16;5084630;28;19919;-74
2023/10/25 00:53:02;;;;;;;;;;;;;;;11.42;100.00;98383.56;5072619;28;19961;-75
2023/10/25 00:55:46;;;;;;;;;;;;;;;11.40;100.00;98386.72;5099275;28;19950;-75
2023/10/25 00:58:31;;;;;;;;;;;;;;;11.39;100.00;98385.13;5085081;28;20276;-74
2023/10/25 01:01:14;;;;;;;;;;;;;;;11.39;100.00;98384.28;5092572;28;19942;-75
2023/10/25 01:03:58;;;;;;;;;;;;;;;11.40;100.00;98375.59;5086107;28;19936;-74
2023/10/25 01:06:42;;;;;;;;;;;;;;;11.39;100.00;98371.22;5097479;28;19919;-74
2023/10/25 01:09:27;;;;;;;;;;;;;;;11.40;100.00;98374.81;5099299;28;19927;-75
2023/10/25 01:12:11;;;;;;;;;;;;;;;11.39;100.00;98384.28;5093302;28;19955;-74
2023/10/25 01:14:55;;;;;;;;;;;;;;;11.40;100.00;98383.94;5098041;28;19966;-74
2023/10/25 01:17:39;;;;;;;;;;;;;;;11.38;100.00;98382.69;5094642;28;19927;-75
2023/10/25 01:20:23;;;;;;;;;;;;;;;11.38;100.00;98386.25;5078783;28;19931;-75
2023/10/25 01:23:07;;;;;;;;;;;;;;;11.40;100.00;98380.34;5085498;28;20414;-75
2023/10/25 01:25:51;;;;;;;;;;;;;;;11.39;100.00;98381.50;5095723;28;19927;-75
2023/10/25 01:28:35;;;;;;;;;;;;;;;11.36;100.00;98369.13;5093237;28;19970;-74
2023/10/25 01:31:19;;;;;;;;;;;;;;;11.37;100.00;98367.97;5085947;28;19942;-74
2023/10/25 01:34:03;;;;;;;;;;;;;;;11.37;100.00;98354.06;5096756;28;19919;-75
2023/10/25 01:36:47;;;;;;;;;;;;;;;11.40;100.00;98358.94;5096505;28;19981;-74
2023/10/25 01:39:31;;;;;;;;;;;;;;;11.40;100.00;98358.94;5087602;28;19918;-75
2023/10/25 01:42:15;;;;;;;;;;;;;;;11.38;100.00;98366.81;5112216;28;19922;-75
2023/10/25 01:45:01;;;;;;;;;;;;;;;11.40;100.00;98358.13;5098488;28;19958;-75
2023/10/25 01:47:45;;;;;;;;;;;;;;;11.40;100.00;98363.69;5099632;28;19918;-75
2023/10/25 01:50:28;;;;;;;;;;;;;;;11.40;100.00;98375.59;5098372;28;19918;-75
2023/10/25 01:53:13;;;;;;;;;;;;;;;11.38;100.00;98375.13;5086249;28;19924;-74
2023/10/25 01:55:57;;;;;;;;;;;;;;;11.36;100.00;98358.00;5078310;28;20372;-74
2023/10/25 01:58:41;;;;;;;;;;;;;;;11.38;100.00;98366.81;5096906;28;19966;-75
2023/10/25 02:01:25;;;;;;;;;;;;;;;11.40;100.00;98364.50;5085783;28;19974;-74
2023/10/25 02:04:09;;;;;;;;;;;;;;;11.39;100.00;98360.09;5098544;28;19935;-75
2023/10/25 02:06:53;;;;;;;;;;;;;;;11.37;100.00;98365.19;5070349;28;19969;-74
2023/10/25 02:09:37;;;;;;;;;;;;;;;11.36;100.00;98352.44;5099220;28;19918;-74
2023/10/25 02:12:21;;;;;;;;;;;;;;;11.38;100.00;98350.13;5099034;28;19919;-74
2023/10/25 02:15:05;;;;;;;;;;;;;;;11.37;100.00;98351.31;5079042;28;19961;-75
2023/10/25 02:17:50;;;;;;;;;;;;;;;11.37;100.00;98356.84;5100993;28;19966;-74
2023/10/25 02:20:34;;;;;;;;;;;;;;;11.37;100.00;98356.06;5077734;28;19919;-74
2023/10/25 02:23:18;;;;;;;;;;;;;;;11.38;100.00;98339.00;5098401;28;20008;-75
2023/10/25 02:26:02;;;;;;;;;;;;;;;11.38;100.00;98324.31;5083506;28;19934;-75
2023/10/25 02:28:46;;;;;;;;;;;;;;;11.36;100.00;98313.53;5083522;28;20263;-75
2023/10/25 02:31:32;;;;;;;;;;;;;;;11.39;100.00;98312.03;5097514;28;19934;-75
2023/10/25 02:34:16;;;;;;;;;;;;;;;11.36;100.00;98312.72;5097835;28;19966;-75
2023/10/25 02:37:00;;;;;;;;;;;;;;;11.36;100.00;98310.75;5095858;28;19973;-75
2023/10/25 02:39:44;;;;;;;;;;;;;;;11.37;100.00;98312.38;5091853;28;19934;-75
2023/10/25 02:42:28;;;;;;;;;;;;;;;11.35;100.00;98316.69;5070722;28;19919;-74
2023/10/25 02:45:12;;;;;;;;;;;;;;;11.35;100.00;98314.72;5097099;28;19946;-75
2023/10/25 02:47:57;;;;;;;;;;;;;;;11.35;100.00;98311.94;5077313;28;19969;-74
2023/10/25 02:50:40;;;;;;;;;;;;;;;11.36;100.00;98301.63;5085675;28;19934;-75
2023/10/25 02:53:25;;;;;;;;;;;;;;;11.36;100.00;98309.94;5083556;28;19922;-74
2023/10/25 02:56:09;;;;;;;;;;;;;;;11.35;100.00;98314.72;5094492;28;19918;-75
2023/10/25 02:58:53;;;;;;;;;;;;;;;11.35;100.00;98323.03;5084134;28;20051;-74
2023/10/25 03:01:37;;;;;;;;;;;;;;;11.36;100.00;98318.28;5088060;28;19919;-74
2023/10/25 03:04:20;;;;;;;;;;;;;;;11.36;100.00;98309.94;5091421;28;19919;-74
2023/10/25 03:07:05;;;;;;;;;;;;;;;11.35;100.00;98309.16;5079336;28;20015;-75
2023/10/25 03:09:49;;;;;;;;;;;;;;;11.36;100.00;98302.41;5095558;28;20409;-74
2023/10/25 03:12:33;;;;;;;;;;;;;;;11.33;100.00;98300.34;5091349;28;19962;-74
2023/10/25 03:15:17;;;;;;;;;;;;;;;11.31;100.00;98291.56;5095294;28;19927;-74
2023/10/25 03:18:02;;;;;;;;;;;;;;;11.31;100.00;98288.81;5083494;28;19971;-75
2023/10/25 03:20:46;;;;;;;;;;;;;;;11.29;100.00;98285.56;5077591;28;19924;-75
2023/10/25 03:23:30;;;;;;;;;;;;;;;11.30;100.00;98280.81;5096900;28;20430;-75
2023/10/25 03:26:14;;;;;;;;;;;;;;;11.29;100.00;98274.44;5082562;28;19926;-74
2023/10/25 03:28:58;;;;;;;;;;;;;;;11.28;100.00;98278.41;5092273;28;19919;-74
2023/10/25 03:31:42;;;;;;;;;;;;;;;11.29;100.00;98291.13;5090721;28;20652;-75
2023/10/25 03:34:26;;;;;;;;;;;;;;;11.23;100.00;98284.19;5084328;28;19939;-74
2023/10/25 03:37:10;;;;;;;;;;;;;;;11.23;100.00;98281.41;5093354;28;19927;-75
2023/10/25 03:39:54;;;;;;;;;;;;;;;11.23;100.00;98278.63;5095798;28;19943;-74
2023/10/25 03:42:38;;;;;;;;;;;;;;;11.20;100.00;98282.13;5093642;28;19923;-75
2023/10/25 03:45:22;;;;;;;;;;;;;;;11.21;100.00;98283.72;5097380;28;19920;-75
2023/10/25 03:48:06;;;;;;;;;;;;;;;11.18;100.00;98290.81;5090987;28;19919;-75
2023/10/25 03:50:50;;;;;;;;;;;;;;;11.16;100.00;98289.53;5090840;28;19966;-75
2023/10/25 03:53:38;;;;;;;;;;;;;;;11.16;100.00;98297.88;5092851;28;19919;-74
2023/10/25 03:56:22;;;;;;;;;;;;;;;11.13;100.00;98293.00;5076450;28;19966;-74
2023/10/25 03:59:07;;;;;;;;;;;;;;;11.12;100.00;98296.97;5085652;28;20422;-75
2023/10/25 04:01:51;;;;;;;;;;;;;;;11.10;100.00;98293.72;5081889;28;20402;-75
2023/10/25 04:04:35;;;;;;;;;;;;;;;11.11;100.00;98292.53;5096336;28;19926;-75
2023/10/25 04:07:19;;;;;;;;;;;;;;;11.11;100.00;98300.88;5090258;28;19939;-75
2023/10/25 04:10:03;;;;;;;;;;;;;;;11.09;100.00;98294.91;5096014;28;19919;-74
2023/10/25 04:12:47;;;;;;;;;;;;;;;11.11;100.00;98298.09;5110736;28;20270;-75
2023/10/25 04:15:34;;;;;;;;;;;;;;;11.12;100.00;98294.19;5107258;28;19919;-74
2023/10/25 04:18:18;;;;;;;;;;;;;;;11.09;100.00;98292.91;5084327;28;19924;-75
2023/10/25 04:21:07;;;;;;;;;;;;;;;11.11;100.00;98292.53;5079662;28;20401;-75
2023/10/25 04:23:51;;;;;;;;;;;;;;;11.09;100.00;98292.13;5096326;28;20398;-75
2023/10/25 04:26:35;;;;;;;;;;;;;;;11.12;100.00;98291.41;5080759;28;19919;-74
2023/10/25 04:29:19;;;;;;;;;;;;;;;11.07;100.00;98278.56;5098406;28;20305;-75
2023/10/25 04:32:03;;;;;;;;;;;;;;;11.09;100.00;98284.59;5100709;28;19938;-75
2023/10/25 04:34:47;;;;;;;;;;;;;;;11.08;100.00;98284.91;5100143;28;20375;-75
2023/10/25 04:37:31;;;;;;;;;;;;;;;11.09;100.00;98286.56;5092855;28;20439;-75
2023/10/25 04:40:15;;;;;;;;;;;;;;;11.07;100.00;98281.34;5109349;28;19918;-74
2023/10/25 04:42:59;;;;;;;;;;;;;;;11.06;100.00;98276.13;5100994;28;19919;-74
2023/10/25 04:45:43;;;;;;;;;;;;;;;11.08;100.00;98280.16;5087825;28;19958;-75
2023/10/25 04:48:27;;;;;;;;;;;;;;;11.09;100.00;98276.25;5099325;28;20287;-75
2023/10/25 04:51:13;;;;;;;;;;;;;;;11.09;100.00;98272.66;5085482;28;20530;-75
2023/10/25 04:53:56;;;;;;;;;;;;;;;11.08;100.00;98276.59;5085858;28;20374;-75
2023/10/25 04:56:40;;;;;;;;;;;;;;;11.07;100.00;98274.97;5099431;28;19985;-75
2023/10/25 04:59:24;;;;;;;;;;;;;;;11.09;100.00;98275.44;5100630;28;19939;-75
2023/10/25 05:02:08;;;;;;;;;;;;;;;11.08;100.00;98277.41;5087474;28;20119;-75
2023/10/25 05:04:52;;;;;;;;;;;;;;;11.10;100.00;98268.72;5096515;28;19919;-75
2023/10/25 05:07:37;;;;;;;;;;;;;;;11.10;100.00;98266.75;5096254;28;19920;-74
2023/10/25 05:10:20;;;;;;;;;;;;;;;11.11;100.00;98265.56;5082664;28;19962;-74
2023/10/25 05:13:05;;;;;;;;;;;;;;;11.10;100.00;98261.19;5094937;28;19958;-75
2023/10/25 05:15:49;;;;;;;;;;;;;;;11.10;100.00;98257.59;5100075;28;19973;-74
2023/10/25 05:18:33;;;;;;;;;;;;;;;11.10;100.00;98260.38;5100110;28;19923;-75
2023/10/25 05:21:18;;;;;;;;;;;;;;;11.11;100.00;98250.88;5098737;28;19919;-75
2023/10/25 05:24:02;;;;;;;;;;;;;;;11.10;100.00;98247.31;5084750;28;20053;-75
2023/10/25 05:26:46;;;;;;;;;;;;;;;11.10;100.00;98238.97;5084783;28;19964;-75
2023/10/25 05:29:30;;;;;;;;;;;;;;;11.14;100.00;98225.16;5106625;28;19957;-75
2023/10/25 05:32:17;;;;;;;;;;;;;;;11.14;100.00;98230.72;5094553;28;19922;-75
2023/10/25 05:35:02;;;;;;;;;;;;;;;11.14;100.00;98216.84;5094339;28;19919;-75
2023/10/25 05:37:46;;;;;;;;;;;;;;;11.14;100.00;98214.88;5087154;28;20285;-75
2023/10/25 05:40:30;;;;;;;;;;;;;;;11.14;100.00;98217.66;5084399;28;20356;-75
2023/10/25 05:43:14;;;;;;;;;;;;;;;11.13;100.00;98216.03;5086141;28;19985;-75
2023/10/25 05:45:58;;;;;;;;;;;;;;;11.14;100.00;98206.56;5072510;28;19996;-75
2023/10/25 05:48:42;;;;;;;;;;;;;;;11.13;100.00;98204.13;5081568;28;19919;-75
2023/10/25 05:51:26;;;;;;;;;;;;;;;11.13;100.00;98199.38;5093395;28;20371;-75
2023/10/25 05:54:10;;;;;;;;;;;;;;;11.14;100.00;98195.44;5078290;28;19918;-75
2023/10/25 05:56:54;;;;;;;;;;;;;;;11.15;100.00;98196.25;5110711;28;19964;-75
2023/10/25 05:59:38;;;;;;;;;;;;;;;11.16;100.00;98192.28;5078036;28;20078;-75
2023/10/25 06:02:23;;;;;;;;;;;;;;;11.14;100.00;98197.38;5098531;28;19962;-75
2023/10/25 06:05:08;;;;;;;;;;;;;;;11.15;100.00;98194.28;5083235;28;19934;-75
2023/10/25 06:07:52;;;;;;;;;;;;;;;11.15;100.00;98179.59;5083688;28;19961;-75
2023/10/25 06:10:36;;;;;;;;;;;;;;;11.15;100.00;98185.13;5098281;28;19969;-75
2023/10/25 06:13:20;;;;;;;;;;;;;;;11.17;100.00;98185.56;5097766;28;19920;-75
2023/10/25 06:16:04;;;;;;;;;;;;;;;11.17;100.00;98194.72;5093675;28;19920;-74
2023/10/25 06:18:48;;;;;;;;;;;;;;;11.18;100.00;98196.34;5098875;28;19969;-75
2023/10/25 06:21:32;;;;;;;;;;;;;;;11.19;100.00;98194.38;5086031;28;19919;-74
2023/10/25 06:24:16;;;;;;;;;;;;;;;11.18;100.00;98187.19;5098910;28;19968;-75
2023/10/25 06:27:00;;;;;;;;;;;;;;;11.20;100.00;98198.78;5098920;28;19956;-74
2023/10/25 06:29:44;;;;;;;;;;;;;;;11.19;100.00;98191.59;5074004;28;19964;-75
2023/10/25 06:32:28;;;;;;;;;;;;;;;11.21;100.00;98183.72;5112287;28;20267;-75
2023/10/25 06:35:12;;;;;;;;;;;;;;;11.22;100.00;98181.72;5094462;28;20135;-74
2023/10/25 06:37:56;;;;;;;;;;;;;;;11.23;100.00;98203.63;5086176;28;20407;-74
2023/10/25 06:40:40;;;;;;;;;;;;;;;11.23;100.00;98202.78;5096416;28;19957;-75
2023/10/25 06:43:24;;;;;;;;;;;;;;;11.24;100.00;98204.44;5097680;28;19919;-73
2023/10/25 06:46:08;;;;;;;;;;;;;;;11.26;100.00;98210.44;5097495;28;20330;-74
2023/10/25 06:48:52;;;;;;;;;;;;;;;11.26;100.00;98207.66;5096192;28;20407;-74
2023/10/25 06:51:36;;;;;;;;;;;;;;;11.25;100.00;98208.81;5099159;28;20359;-74
2023/10/25 06:54:20;;;;;;;;;;;;;;;11.28;100.00;98217.25;5093088;28;19936;-74
2023/10/25 06:57:04;;;;;;;;;;;;;;;11.29;100.00;98210.53;5096316;28;19927;-74
2023/10/25 06:59:48;;;;;;;;;;;;;;;11.30;100.00;98214.13;5097158;28;19923;-74
2023/10/25 07:02:42;;;;;;;;;;;;;;;11.30;100.00;98214.91;5087914;28;19923;-74
2023/10/25 07:05:26;;;;;;;;;;;;;;;11.35;100.00;98220.22;5085418;28;20367;-75
2023/10/25 07:08:10;;;;;;;;;;;;;;;11.35;100.00;98228.56;5098219;28;19918;-75
2023/10/25 07:10:54;;;;;;;;;;;;;;;11.36;100.00;98227.38;5091022;28;20352;-75
2023/10/25 07:13:38;;;;;;;;;;;;;;;11.39;100.00;98218.38;5087295;28;19919;-75
2023/10/25 07:16:22;;;;;;;;;;;;;;;11.43;100.00;98218.47;5096116;28;19995;-75
2023/10/25 07:19:06;;;;;;;;;;;;;;;11.43;100.00;98220.44;5082132;28;19938;-75
2023/10/25 07:21:50;;;;;;;;;;;;;;;11.46;100.00;98234.41;5086917;28;19982;-75
2023/10/25 07:24:34;;;;;;;;;;;;;;;11.48;100.00;98234.03;5096555;28;19919;-75
2023/10/25 07:27:18;;;;;;;;;;;;;;;11.53;100.00;98247.69;5092919;28;19920;-75
2023/10/25 07:30:03;;;;;;;;;;;;;;;11.54;100.00;98266.00;5096418;28;19923;-75
2023/10/25 07:32:47;;;;;;;;;;;;;;;11.57;100.00;98270.84;5084098;28;19923;-75
2023/10/25 07:35:31;;;;;;;;;;;;;;;11.61;100.00;98271.75;5091608;28;19919;-75
2023/10/25 07:38:15;;;;;;;;;;;;;;;11.62;100.00;98278.94;5096347;28;20000;-75
2023/10/25 07:41:00;;;;;;;;;;;;;;;11.65;100.00;98283.78;5085153;28;19937;-75
2023/10/25 07:43:44;;;;;;;;;;;;;;;11.66;100.00;98299.28;5096318;28;19970;-75
2023/10/25 07:46:28;;;;;;;;;;;;;;;11.68;100.00;98296.97;5090920;28;19919;-75
2023/10/25 07:49:12;;;;;;;;;;;;;;;11.70;100.00;98307.72;5090833;28;20312;-75
2023/10/25 07:51:56;;;;;;;;;;;;;;;11.69;100.00;98317.25;5091706;28;19964;-75
2023/10/25 07:54:40;;;;;;;;;;;;;;;11.71;100.00;98314.91;5107444;28;19958;-75
2023/10/25 07:57:25;;;;;;;;;;;;;;;11.73;100.00;98326.47;5084683;28;19923;-75
2023/10/25 08:00:12;;;;;;;;;;;;;;;11.75;100.00;98324.97;5077980;28;19919;-75
2023/10/25 08:02:56;;;;;;;;;;;;;;;11.78;100.00;98346.53;5091680;28;19923;-75
2023/10/25 08:05:40;;;;;;;;;;;;;;;11.82;100.00;98352.19;5078736;28;19923;-75
2023/10/25 08:08:24;;;;;;;;;;;;;;;11.85;100.00;98355.06;5100175;28;19982;-75
2023/10/25 08:11:08;;;;;;;;;;;;;;;11.90;100.00;98364.34;5098032;28;19973;-75
2023/10/25 08:13:52;;;;;;;;;;;;;;;11.92;100.00;98370.34;5100337;28;19962;-75
2023/10/25 08:16:39;;;;;;;;;;;;;;;11.96;100.00;98385.97;5092739;28;19934;-75
2023/10/25 08:19:23;;;;;;;;;;;;;;;12.01;100.00;98399.63;5104002;28;20410;-75
2023/10/25 08:22:08;;;;;;;;;;;;;;;12.03;100.00;98408.41;5100035;28;19934;-75
2023/10/25 08:24:52;;;;;;;;;;;;;;;12.06;100.00;98418.03;5094118;28;19920;-75
2023/10/25 08:27:37;;;;;;;;;;;;;;;12.08;100.00;98410.94;5110802;28;19923;-75
2023/10/25 08:30:21;;;;;;;;;;;;;;;12.11;100.00;98426.13;5093910;28;20324;-75
2023/10/25 08:33:05;;;;;;;;;;;;;;;12.12;100.00;98418.56;5100889;28;20015;-75
2023/10/25 08:35:49;;;;;;;;;;;;;;;12.11;100.00;98430.88;5084557;28;19938;-75
2023/10/25 08:38:33;;;;;;;;;;;;;;;12.13;100.00;98437.72;5100212;28;19946;-75
2023/10/25 08:41:18;;;;;;;;;;;;;;;12.16;100.00;98434.22;5093913;28;19926;-75
2023/10/25 08:44:02;;;;;;;;;;;;;;;12.18;100.00;98443.03;5113219;28;19978;-75
2023/10/25 08:46:47;;;;;;;;;;;;;;;12.22;100.00;98446.72;5099251;28;19969;-75
2023/10/25 08:49:31;;;;;;;;;;;;;;;12.28;100.00;98456.41;5094251;28;19920;-75
2023/10/25 08:52:15;;;;;;;;;;;;;;;12.34;100.00;98453.38;5066752;28;20391;-75
2023/10/25 08:55:01;;;;;;;;;;;;;;;12.39;100.00;98459.50;5090314;28;19919;-75
2023/10/25 08:57:45;;;;;;;;;;;;;;;12.43;100.00;98470.75;5092814;28;19924;-75
2023/10/25 09:00:31;;;;;;;;;;;;;;;12.49;100.00;98486.81;5079731;28;19919;-75
2023/10/25 09:03:35;;;;;;;;;;;;;;;12.52;100.00;98490.88;5095518;28;19922;-75
2023/10/25 09:06:23;;;;;;;;;;;;;;;12.55;100.00;98515.22;5100199;28;19935;-75
2023/10/25 09:09:08;;;;;;;;;;;;;;;12.56;100.00;98516.03;5099246;28;19919;-75
2023/10/25 09:11:52;;;;;;;;;;;;;;;12.58;100.00;98528.44;5092757;28;19965;-75
2023/10/25 09:14:47;;;;;;;;;;;;;;;12.62;100.00;98534.91;5097572;28;19975;-75
2023/10/25 09:17:31;;;;;;;;;;;;;;;12.68;100.00;98544.63;5099930;28;20009;-75
2023/10/25 09:20:14;;;;;;;;;;;;;;;12.74;100.00;98539.59;5093206;28;19966;-75
2023/10/25 09:23:08;;;;;;;;;;;;;;;12.80;100.00;98545.72;5106855;28;19922;-75
2023/10/25 09:25:52;;;;;;;;;;;;;;;12.88;100.00;98541.97;5103953;28;19927;-75
2023/10/25 09:28:36;;;;;;;;;;;;;;;12.96;100.00;98546.56;5084790;28;20007;-75
2023/10/25 09:31:24;;;;;;;;;;;;;;;13.02;100.00;98545.13;5088501;28;19919;-75
2023/10/25 09:34:08;;;;;;;;;;;;;;;13.11;100.00;98545.75;5098147;28;19938;-75
2023/10/25 09:36:52;;;;;;;;;;;;;;;13.19;100.00;98550.34;5091418;28;19927;-75
2023/10/25 09:39:37;;;;;;;;;;;;;;;13.28;100.00;98549.38;5093369;28;19931;-75
2023/10/25 09:42:25;;;;;;;;;;;;;;;13.37;100.00;98564.78;5107320;28;19935;-75
2023/10/25 09:45:09;;;;;;;;;;;;;;;13.47;100.00;98565.41;5116857;27;19931;-74
2023/10/25 09:47:55;;;;;;;;;;;;;;;13.55;100.00;98558.84;5084408;28;19950;-75
2023/10/25 09:50:41;;;;;;;;;;;;;;;13.67;100.00;98569.06;5086542;28;19919;-74
2023/10/25 09:53:27;;;;;;;;;;;;;;;13.74;100.00;98572.84;5070624;28;19942;-75
2023/10/25 09:56:11;;;;;;;;;;;;;;;13.83;100.00;98575.44;5097877;28;19919;-75
2023/10/25 09:58:55;;;;;;;;;;;;;;;13.93;100.00;98577.69;5085426;28;19918;-75
2023/10/25 10:01:39;;;;;;;;;;;;;;;14.00;100.00;98580.63;5075292;28;20016;-75
2023/10/25 10:04:23;;;;;;;;;;;;;;;14.07;100.00;98588.34;5077692;28;20326;-75
2023/10/25 10:07:09;;;;;;;;;;;;;;;14.14;100.00;98590.50;5086709;28;19961;-75
2023/10/25 10:10:12;;;;;;;;;;;;;;;14.18;100.00;98591.38;5081800;28;19919;-75
2023/10/25 10:12:57;;;;;;;;;;;;;;;14.22;100.00;98583.91;5097994;28;20015;-75
2023/10/25 10:15:58;;;;;;;;;;;;;;;14.23;100.00;98589.09;5097905;28;19920;-75
2023/10/25 10:18:42;;;;;;;;;;;;;;;14.29;100.00;98600.78;5083608;28;20395;-75
2023/10/25 10:21:26;;;;;;;;;;;;;;;14.32;100.00;98594.50;5113857;27;20053;-75
2023/10/25 10:24:26;;;;;;;;;;;;;;;14.37;100.00;98612.94;5079798;28;19920;-75
2023/10/25 10:27:11;;;;;;;;;;;;;;;14.42;100.00;98610.66;5078710;28;20325;-74
2023/10/25 10:29:55;;;;;;;;;;;;;;;14.47;100.00;98607.56;5107930;28;19978;-75
2023/10/25 10:32:40;;;;;;;;;;;;;;;14.56;100.00;98620.56;5078109;28;20360;-75
2023/10/25 10:35:24;;;;;;;;;;;;;;;14.61;100.00;98615.47;5091855;28;19934;-75
2023/10/25 10:38:09;;;;;;;;;;;;;;;14.70;100.00;98621.66;5097142;28;19945;-75
2023/10/25 10:40:53;;;;;;;;;;;;;;;14.82;100.00;98617.09;5078655;28;19919;-75
2023/10/25 10:43:36;;;;;;;;;;;;;;;14.90;100.00;98627.22;5096021;28;20387;-75
2023/10/25 10:46:20;;;;;;;;;;;;;;;15.00;100.00;98625.84;5093043;28;19957;-75
2023/10/25 10:49:04;;;;;;;;;;;;;;;15.12;100.00;98636.84;5088769;28;20052;-75
2023/10/25 10:51:49;;;;;;;;;;;;;;;15.22;100.00;98633.47;5094986;28;20393;-75
2023/10/25 10:54:33;;;;;;;;;;;;;;;15.33;100.00;98639.25;5096898;28;19923;-75
2023/10/25 10:57:19;;;;;;;;;;;;;;;15.45;100.00;98632.69;5082111;28;19943;-75
2023/10/25 11:00:04;;;;;;;;;;;;;;;15.56;100.00;98628.88;5092599;28;19918;-75
2023/10/25 11:02:49;;;;;;;;;;;;;;;15.68;100.00;98641.91;5091708;28;19919;-75
2023/10/25 11:05:33;;;;;;;;;;;;;;;15.78;100.00;98644.06;5079173;28;20267;-75
2023/10/25 11:08:20;;;;;;;;;;;;;;;15.85;100.00;98640.56;5096052;28;19958;-75
2023/10/25 11:11:04;;;;;;;;;;;;;;;15.91;100.00;98646.66;5075717;28;19923;-75
2023/10/25 11:13:49;;;;;;;;;;;;;;;15.95;100.00;98641.94;5082931;28;20402;-75
2023/10/25 11:16:32;;;;;;;;;;;;;;;15.98;100.00;98646.78;5096138;28;20371;-75
2023/10/25 11:19:16;;;;;;;;;;;;;;;15.99;100.00;98643.63;5092562;28;19928;-75
2023/10/25 11:22:01;;;;;;;;;;;;;;;16.00;100.00;98638.84;5082081;28;19935;-75
2023/10/25 11:24:46;;;;;;;;;;;;;;;16.04;100.00;98634.09;5083601;28;20002;-75
2023/10/25 11:27:34;;;;;;;;;;;;;;;16.08;100.00;98637.75;5079760;28;20336;-75
2023/10/25 11:30:18;;;;;;;;;;;;;;;16.09;100.00;98634.56;5091571;28;19938;-75
2023/10/25 11:33:03;;;;;;;;;;;;;;;16.14;100.00;98636.25;5085568;28;19971;-75
2023/10/25 11:35:47;;;;;;;;;;;;;;;16.23;100.00;98639.59;5093429;28;19918;-75
2023/10/25 11:38:31;;;;;;;;;;;;;;;16.25;100.00;98642.03;5096313;28;19926;-75
2023/10/25 11:41:15;;;;;;;;;;;;;;;16.30;100.00;98642.50;5082559;28;19920;-75
2023/10/25 11:43:59;;;;;;;;;;;;;;;16.36;100.00;98647.78;5096895;28;19919;-75
2023/10/25 11:46:44;;;;;;;;;;;;;;;16.34;100.00;98647.34;5097690;28;19919;-75
2023/10/25 11:49:28;;;;;;;;;;;;;;;16.40;100.00;98651.44;5082593;28;19934;-75
2023/10/25 11:52:12;;;;;;;;;;;;;;;16.42;100.00;98640.66;5081464;28;20269;-75
2023/10/25 11:54:57;;;;;;;;;;;;;;;16.43;100.00;98639.47;5092230;28;19958;-75
2023/10/25 11:57:44;;;;;;;;;;;;;;;16.44;100.00;98641.09;5096435;28;19970;-75
2023/10/25 12:00:28;;;;;;;;;;;;;;;16.43;100.00;98647.88;5090288;28;19978;-75
2023/10/25 12:03:12;;;;;;;;;;;;;;;16.42;100.00;98649.88;5093024;28;19923;-75
2023/10/25 12:05:56;;;;;;;;;;;;;;;16.36;100.00;98650.59;5082221;28;19923;-75
2023/10/25 12:08:41;;;;;;;;;;;;;;;16.36;100.00;98656.19;5076360;28;19955;-75
2023/10/25 12:11:25;;;;;;;;;;;;;;;16.38;100.00;98656.59;5092137;28;19927;-75
2023/10/25 12:14:09;;;;;;;;;;;;;;;16.38;100.00;98653.78;5090510;28;20003;-75
2023/10/25 12:16:53;;;;;;;;;;;;;;;16.36;100.00;98656.19;5086210;28;19958;-75
2023/10/25 12:19:39;;;;;;;;;;;;;;;16.38;100.00;98656.59;5095268;28;19923;-75
2023/10/25 12:22:22;;;;;;;;;;;;;;;16.41;100.00;98655.84;5097288;28;19933;-75
2023/10/25 12:25:07;;;;;;;;;;;;;;;16.45;100.00;98656.72;5076019;28;20042;-75
2023/10/25 12:27:51;;;;;;;;;;;;;;;16.49;100.00;98655.59;5095945;28;19920;-75
2023/10/25 12:30:35;;;;;;;;;;;;;;;16.59;100.00;98662.50;5092166;28;20265;-75
2023/10/25 12:33:19;;;;;;;;;;;;;;;16.66;100.00;98657.00;5090200;28;20069;-75
2023/10/25 12:36:04;;;;;;;;;;;;;;;16.75;100.00;98657.53;5080496;28;19973;-75
2023/10/25 12:38:48;;;;;;;;;;;;;;;16.89;100.00;98656.13;5092977;28;19973;-75
2023/10/25 12:41:35;;;;;;;;;;;;;;;17.02;100.00;98649.09;5090155;28;19935;-75
2023/10/25 12:44:19;;;;;;;;;;;;;;;17.16;100.00;98663.28;5087534;28;20000;-75
2023/10/25 12:47:03;;;;;;;;;;;;;;;17.31;100.00;98663.44;5097567;28;20351;-75
2023/10/25 12:49:49;;;;;;;;;;;;;;;17.41;100.00;98663.56;5079475;28;19924;-75
2023/10/25 12:52:32;;;;;;;;;;;;;;;17.49;100.00;98658.78;5091404;28;19918;-75
2023/10/25 12:55:17;;;;;;;;;;;;;;;17.58;100.00;98658.50;5097141;28;19923;-75
2023/10/25 12:58:02;;;;;;;;;;;;;;;17.60;100.00;98673.75;5099541;28;20391;-75
2023/10/25 13:00:47;;;;;;;;;;;;;;;17.65;100.00;98672.59;5089692;28;19939;-75
2023/10/25 13:03:30;;;;;;;;;;;;;;;17.65;100.00;98673.41;5098940;28;19919;-75
2023/10/25 13:06:15;;;;;;;;;;;;;;;17.66;100.00;98682.63;5100608;28;20049;-75
2023/10/25 13:08:59;;;;;;;;;;;;;;;17.65;100.00;98679.00;5099618;28;19985;-75
2023/10/25 13:11:43;;;;;;;;;;;;;;;17.65;100.00;98679.00;5071697;28;19933;-75
2023/10/25 13:14:27;;;;;;;;;;;;;;;17.67;100.00;98686.25;5094993;28;20391;-75
2023/10/25 13:17:11;;;;;;;;;;;;;;;17.66;100.00;98685.44;5093227;28;19919;-75
2023/10/25 13:19:57;;;;;;;;;;;;;;;17.65;100.00;98687.44;5087024;28;19919;-75
2023/10/25 13:22:41;;;;;;;;;;;;;;;17.65;100.00;98693.03;5100017;28;19923;-75
2023/10/25 13:25:25;;;;;;;;;;;;;;;17.65;100.00;98690.25;5100475;28;19918;-75
2023/10/25 13:28:09;;;;;;;;;;;;;;;17.66;100.00;98688.22;5082240;28;19962;-75
2023/10/25 13:30:53;;;;;;;;;;;;;;;17.63;100.00;98684.22;5092738;28;19919;-75
2023/10/25 13:33:38;;;;;;;;;;;;;;;17.63;100.00;98689.84;5094058;28;19920;-75
2023/10/25 13:36:21;;;;;;;;;;;;;;;17.58;100.00;98672.53;5097679;28;19919;-76
2023/10/25 13:39:06;;;;;;;;;;;;;;;17.47;100.00;98663.19;5098689;28;20407;-75
2023/10/25 13:41:52;;;;;;;;;;;;;;;17.47;100.00;98666.81;5098553;28;21474;-75
2023/10/25 13:44:36;;;;;;;;;;;;;;;17.47;100.00;98675.22;5099593;28;20011;-76
2023/10/25 13:47:19;;;;;;;;;;;;;;;17.41;100.00;98671.13;5087275;28;19934;-75
2023/10/25 13:50:04;;;;;;;;;;;;;;;17.33;100.00;98664.66;5098271;28;19919;-75
2023/10/25 13:52:48;;;;;;;;;;;;;;;17.28;100.00;98667.81;5090225;28;20277;-75
2023/10/25 13:55:35;;;;;;;;;;;;;;;17.23;100.00;98665.34;5077265;28;19919;-75
2023/10/25 13:58:20;;;;;;;;;;;;;;;17.15;100.00;98653.22;5090456;28;19965;-75
2023/10/25 14:01:04;;;;;;;;;;;;;;;17.08;100.00;98657.97;5087026;28;19920;-75
2023/10/25 14:03:48;;;;;;;;;;;;;;;17.02;100.00;98653.88;5069060;28;20000;-75